createdAt,value
2022-07-29T00:02:54.687Z,17.80
2022-07-29T00:07:03.549Z,17.90
2022-07-29T00:11:13.812Z,17.90
2022-07-29T00:15:22.660Z,17.80
2022-07-29T00:19:31.393Z,17.80
2022-07-29T00:23:41.834Z,17.70
2022-07-29T00:27:51.982Z,17.80
2022-07-29T00:32:00.889Z,17.70
2022-07-29T00:36:09.789Z,17.70
2022-07-29T00:40:18.584Z,17.70
2022-07-29T00:44:38.207Z,17.70
2022-07-29T00:48:46.915Z,17.70
2022-07-29T00:52:56.278Z,17.70
2022-07-29T00:57:06.548Z,17.70
2022-07-29T01:01:16.914Z,17.70
2022-07-29T01:05:49.952Z,17.70
2022-07-29T01:09:58.156Z,17.80
2022-07-29T01:14:09.148Z,17.80
2022-07-29T01:18:22.871Z,17.80
2022-07-29T01:22:42.795Z,17.80
2022-07-29T01:26:57.994Z,17.70
2022-07-29T01:31:10.427Z,17.60
2022-07-29T01:35:27.396Z,17.50
2022-07-29T01:39:39.949Z,17.50
2022-07-29T01:43:56.085Z,17.50
2022-07-29T01:48:14.384Z,17.40
2022-07-29T01:52:30.179Z,17.40
2022-07-29T01:56:40.417Z,17.30
2022-07-29T02:00:50.887Z,17.30
2022-07-29T02:05:04.072Z,17.30
2022-07-29T02:09:15.446Z,17.30
2022-07-29T02:13:26.214Z,17.30
2022-07-29T02:17:41.134Z,17.30
2022-07-29T02:21:53.930Z,17.30
2022-07-29T02:26:02.993Z,17.30
2022-07-29T02:30:13.567Z,17.20
2022-07-29T02:34:23.592Z,17.10
2022-07-29T02:38:51.648Z,17.10
2022-07-29T02:43:01.626Z,17.10
2022-07-29T02:47:18.579Z,17.10
2022-07-29T02:51:43.499Z,17.10
2022-07-29T02:55:59.147Z,17.20
2022-07-29T03:00:11.065Z,17.20
2022-07-29T03:04:23.208Z,17.20
2022-07-29T03:08:33.384Z,17.10
2022-07-29T03:12:44.409Z,17.20
2022-07-29T03:16:54.180Z,17.20
2022-07-29T03:21:03.289Z,17.20
2022-07-29T03:25:13.039Z,17.10
2022-07-29T03:29:23.154Z,17.00
2022-07-29T03:33:33.396Z,16.90
2022-07-29T03:37:42.086Z,16.80
2022-07-29T03:41:54.741Z,16.70
2022-07-29T03:46:09.561Z,16.80
2022-07-29T03:50:20.614Z,16.80
2022-07-29T03:54:29.556Z,16.80
2022-07-29T03:58:38.871Z,16.80
2022-07-29T04:02:50.862Z,16.80
2022-07-29T04:06:59.587Z,16.80
2022-07-29T04:11:08.585Z,16.90
2022-07-29T04:15:17.510Z,16.90
2022-07-29T04:19:27.661Z,17.00
2022-07-29T04:23:36.457Z,17.00
2022-07-29T04:28:05.124Z,17.00
2022-07-29T04:32:13.860Z,17.00
2022-07-29T04:36:29.401Z,17.10
2022-07-29T04:40:38.810Z,17.00
2022-07-29T04:44:48.914Z,17.00
2022-07-29T04:48:59.277Z,17.00
2022-07-29T04:53:09.949Z,17.00
2022-07-29T04:57:18.926Z,17.10
2022-07-29T05:01:27.700Z,17.10
2022-07-29T05:05:36.589Z,17.10
2022-07-29T05:09:46.813Z,17.10
2022-07-29T05:13:55.844Z,17.20
2022-07-29T05:18:04.763Z,17.20
2022-07-29T05:22:13.633Z,17.20
2022-07-29T05:26:23.707Z,17.20
2022-07-29T05:30:32.601Z,17.20
2022-07-29T05:34:50.420Z,17.10
2022-07-29T05:39:00.463Z,17.20
2022-07-29T05:43:10.775Z,17.20
2022-07-29T05:47:19.725Z,17.20
2022-07-29T05:51:28.646Z,17.30
2022-07-29T05:55:37.364Z,17.40
2022-07-29T05:59:49.684Z,17.50
2022-07-29T06:03:58.444Z,17.50
2022-07-29T06:08:08.409Z,17.60
2022-07-29T06:12:17.217Z,17.70
2022-07-29T06:16:30.280Z,17.80
2022-07-29T06:20:39.381Z,17.90
2022-07-29T06:24:48.045Z,18.10
2022-07-29T06:28:56.801Z,18.20
2022-07-29T06:33:07.485Z,18.40
2022-07-29T06:37:16.287Z,18.50
2022-07-29T06:41:25.075Z,18.60
2022-07-29T06:45:36.839Z,18.80
2022-07-29T06:49:47.074Z,19.00
2022-07-29T06:53:58.383Z,19.20
2022-07-29T06:58:12.030Z,19.30
2022-07-29T07:02:20.788Z,19.50
2022-07-29T07:06:30.973Z,19.60
2022-07-29T07:10:40.191Z,19.80
2022-07-29T07:14:49.385Z,19.90
2022-07-29T07:18:58.098Z,19.90
2022-07-29T07:23:08.347Z,20.00
2022-07-29T07:27:17.022Z,20.10
2022-07-29T07:31:26.165Z,20.20
2022-07-29T07:35:35.165Z,20.30
2022-07-29T07:39:45.288Z,20.50
2022-07-29T07:43:54.180Z,20.60
2022-07-29T07:48:03.747Z,20.80
2022-07-29T07:52:12.522Z,20.90
2022-07-29T07:56:22.844Z,21.00
2022-07-29T08:00:33.364Z,21.10
2022-07-29T08:04:42.699Z,21.20
2022-07-29T08:08:51.937Z,21.20
2022-07-29T08:13:04.895Z,21.30
2022-07-29T08:17:13.704Z,21.40
2022-07-29T08:21:22.380Z,21.40
2022-07-29T08:25:31.331Z,21.50
2022-07-29T08:29:42.359Z,21.50
2022-07-29T08:33:51.174Z,21.60
2022-07-29T08:37:59.931Z,21.60
2022-07-29T08:42:11.024Z,21.60
2022-07-29T08:46:24.444Z,21.70
2022-07-29T08:50:33.351Z,21.80
2022-07-29T08:54:43.283Z,22.30
2022-07-29T08:58:52.756Z,22.80
2022-07-29T09:03:04.252Z,23.20
2022-07-29T09:07:16.860Z,23.60
2022-07-29T09:11:25.784Z,24.00
2022-07-29T09:15:34.483Z,24.30
2022-07-29T09:19:45.352Z,24.30
2022-07-29T09:24:06.482Z,24.70
2022-07-29T09:28:17.563Z,24.80
2022-07-29T09:32:27.462Z,24.70
2022-07-29T09:36:43.756Z,24.80
2022-07-29T09:40:59.936Z,25.10
2022-07-29T09:45:15.321Z,25.50
2022-07-29T09:49:24.148Z,25.50
2022-07-29T09:53:36.103Z,25.70
2022-07-29T09:57:45.642Z,25.70
2022-07-29T10:01:55.384Z,25.60
2022-07-29T10:06:12.163Z,25.90
2022-07-29T10:10:27.463Z,25.80
2022-07-29T10:14:37.087Z,25.90
2022-07-29T10:18:47.990Z,26.00
2022-07-29T10:22:57.407Z,26.00
2022-07-29T10:27:09.178Z,26.00
2022-07-29T10:31:25.773Z,26.20
2022-07-29T10:35:51.956Z,25.70
2022-07-29T10:40:28.562Z,25.60
2022-07-29T10:44:42.080Z,25.80
2022-07-29T10:49:10.001Z,25.90
2022-07-29T10:53:20.189Z,26.20
2022-07-29T10:57:53.026Z,26.70
2022-07-29T11:02:15.959Z,26.90
2022-07-29T11:07:10.068Z,26.30
2022-07-29T11:11:44.192Z,26.20
2022-07-29T11:16:00.745Z,25.80
2022-07-29T11:20:36.506Z,25.80
2022-07-29T11:24:50.052Z,25.70
2022-07-29T11:29:05.118Z,25.90
2022-07-29T11:33:54.113Z,26.00
2022-07-29T11:38:31.962Z,26.40
2022-07-29T11:42:44.451Z,26.40
2022-07-29T11:46:53.997Z,26.40
2022-07-29T11:51:12.079Z,26.30
2022-07-29T11:55:32.651Z,26.00
2022-07-29T11:59:43.893Z,25.50
2022-07-29T12:04:06.846Z,25.40
2022-07-29T12:08:20.300Z,26.00
2022-07-29T12:12:30.987Z,26.10
2022-07-29T12:16:39.805Z,25.60
2022-07-29T12:20:50.491Z,25.20
2022-07-29T12:25:31.888Z,25.20
2022-07-29T12:29:35.892Z,25.80
2022-07-29T12:33:44.942Z,25.60
2022-07-29T12:37:53.965Z,25.40
2022-07-29T12:42:15.001Z,25.10
2022-07-29T12:46:28.703Z,24.80
2022-07-29T12:50:38.276Z,25.10
2022-07-29T12:54:50.127Z,25.60
2022-07-29T12:59:00.627Z,26.00
2022-07-29T13:03:10.847Z,25.50
2022-07-29T13:07:54.164Z,25.60
2022-07-29T13:11:56.390Z,26.00
2022-07-29T13:16:10.263Z,26.00
2022-07-29T13:20:20.353Z,26.50
2022-07-29T13:24:29.052Z,26.70
2022-07-29T13:28:38.873Z,26.90
2022-07-29T13:32:47.931Z,26.70
2022-07-29T13:36:58.040Z,26.80
2022-07-29T13:41:06.795Z,26.80
2022-07-29T13:45:15.937Z,26.80
2022-07-29T13:49:24.903Z,26.30
2022-07-29T13:53:35.195Z,26.20
2022-07-29T13:57:43.886Z,26.30
2022-07-29T14:01:52.708Z,26.40
2022-07-29T14:06:01.872Z,26.40
2022-07-29T14:10:14.335Z,26.30
2022-07-29T14:14:25.940Z,26.50
2022-07-29T14:18:34.646Z,26.90
2022-07-29T14:22:45.048Z,27.00
2022-07-29T14:26:56.022Z,27.00
2022-07-29T14:31:04.819Z,26.80
2022-07-29T14:35:13.548Z,26.60
2022-07-29T14:39:22.219Z,26.50
2022-07-29T14:43:33.200Z,26.30
2022-07-29T14:47:43.061Z,26.20
2022-07-29T14:51:52.312Z,26.30
2022-07-29T14:56:20.857Z,26.30
2022-07-29T15:00:33.395Z,26.20
2022-07-29T15:04:42.132Z,26.20
2022-07-29T15:08:50.850Z,26.10
2022-07-29T15:12:59.610Z,26.30
2022-07-29T15:17:09.946Z,26.50
2022-07-29T15:21:18.713Z,26.80
2022-07-29T15:25:28.514Z,26.80
2022-07-29T15:29:37.304Z,26.80
2022-07-29T15:33:47.811Z,27.00
2022-07-29T15:37:56.528Z,26.90
2022-07-29T15:42:05.717Z,27.00
2022-07-29T15:46:33.434Z,26.90
2022-07-29T15:50:47.135Z,26.80
2022-07-29T15:54:57.117Z,26.70
2022-07-29T15:59:05.866Z,26.40
2022-07-29T16:03:15.011Z,26.00
2022-07-29T16:07:25.429Z,25.80
2022-07-29T16:11:40.363Z,25.40
2022-07-29T16:16:02.648Z,25.20
2022-07-29T16:20:12.633Z,25.30
2022-07-29T16:24:24.212Z,25.40
2022-07-29T16:28:33.347Z,25.40
2022-07-29T16:32:42.168Z,25.40
2022-07-29T16:36:50.994Z,25.50
2022-07-29T16:41:01.187Z,25.50
2022-07-29T16:45:11.025Z,25.60
2022-07-29T16:49:19.904Z,25.60
2022-07-29T16:53:30.223Z,25.70
2022-07-29T16:57:42.132Z,25.60
2022-07-29T17:01:51.087Z,25.60
2022-07-29T17:05:59.793Z,25.70
2022-07-29T17:10:09.368Z,25.70
2022-07-29T17:14:19.675Z,25.70
2022-07-29T17:18:33.015Z,25.70
2022-07-29T17:22:43.137Z,25.80
2022-07-29T17:26:52.646Z,25.80
2022-07-29T17:31:03.382Z,25.80
2022-07-29T17:35:25.885Z,25.80
2022-07-29T17:39:35.787Z,25.80
2022-07-29T17:43:44.749Z,25.70
2022-07-29T17:47:54.916Z,25.50
2022-07-29T17:52:03.811Z,25.50
2022-07-29T17:56:12.721Z,25.60
2022-07-29T18:00:23.146Z,25.50
2022-07-29T18:04:33.336Z,25.50
2022-07-29T18:08:42.253Z,25.60
2022-07-29T18:12:51.221Z,25.70
2022-07-29T18:17:00.542Z,25.70
2022-07-29T18:21:10.936Z,25.70
2022-07-29T18:25:19.722Z,25.70
2022-07-29T18:29:30.555Z,25.70
2022-07-29T18:33:40.554Z,25.70
2022-07-29T18:38:00.636Z,25.60
2022-07-29T18:42:11.284Z,25.50
2022-07-29T18:46:20.099Z,25.40
2022-07-29T18:50:30.647Z,25.20
2022-07-29T18:54:40.793Z,25.00
2022-07-29T18:58:49.644Z,24.90
2022-07-29T19:02:58.471Z,24.70
2022-07-29T19:07:07.297Z,24.60
2022-07-29T19:11:17.486Z,24.40
2022-07-29T19:15:26.650Z,24.20
2022-07-29T19:19:35.765Z,24.00
2022-07-29T19:24:04.175Z,23.80
2022-07-29T19:28:14.860Z,23.80
2022-07-29T19:32:24.960Z,23.80
2022-07-29T19:36:34.447Z,23.70
2022-07-29T19:40:43.351Z,23.70
2022-07-29T19:44:53.590Z,23.50
2022-07-29T19:49:02.347Z,23.40
2022-07-29T19:53:12.796Z,23.30
2022-07-29T19:57:21.439Z,23.10
2022-07-29T20:01:33.091Z,23.00
2022-07-29T20:05:42.229Z,22.80
2022-07-29T20:09:56.795Z,22.70
2022-07-29T20:14:06.616Z,22.60
2022-07-29T20:18:17.014Z,22.40
2022-07-29T20:22:25.827Z,22.30
2022-07-29T20:26:34.525Z,22.20
2022-07-29T20:30:43.377Z,22.10
2022-07-29T20:34:53.831Z,22.00
2022-07-29T20:39:02.580Z,21.90
2022-07-29T20:43:11.613Z,21.80
2022-07-29T20:47:21.054Z,21.70
2022-07-29T20:51:31.283Z,21.50
2022-07-29T20:55:52.291Z,21.50
2022-07-29T21:00:00.953Z,21.30
2022-07-29T21:04:09.806Z,21.20
2022-07-29T21:08:19.991Z,21.00
2022-07-29T21:12:30.252Z,20.90
2022-07-29T21:16:38.929Z,20.80
2022-07-29T21:20:47.754Z,20.70
2022-07-29T21:24:58.069Z,20.60
2022-07-29T21:29:06.812Z,20.40
2022-07-29T21:33:15.619Z,20.20
2022-07-29T21:37:24.335Z,20.20
2022-07-29T21:41:34.582Z,20.10
2022-07-29T21:45:44.132Z,20.10
2022-07-29T21:49:53.194Z,20.00
2022-07-29T21:54:01.912Z,19.90
2022-07-29T21:58:12.521Z,19.90
2022-07-29T22:02:21.303Z,19.80
2022-07-29T22:06:29.995Z,19.90
2022-07-29T22:10:38.869Z,19.80
2022-07-29T22:14:49.024Z,19.70
2022-07-29T22:18:58.413Z,19.70
2022-07-29T22:23:07.145Z,19.50
2022-07-29T22:27:15.984Z,19.40
2022-07-29T22:31:26.726Z,19.30
2022-07-29T22:35:36.183Z,19.20
2022-07-29T22:39:44.976Z,19.20
2022-07-29T22:43:53.809Z,19.10
2022-07-29T22:48:03.983Z,19.10
2022-07-29T22:52:13.028Z,19.00
2022-07-29T22:56:23.982Z,19.00
2022-07-29T23:00:33.303Z,18.90
2022-07-29T23:04:43.520Z,18.90
2022-07-29T23:08:52.411Z,18.80
2022-07-29T23:13:01.498Z,18.70
2022-07-29T23:17:10.693Z,18.60
2022-07-29T23:21:21.805Z,18.50
2022-07-29T23:25:31.116Z,18.40
2022-07-29T23:29:40.919Z,18.40
2022-07-29T23:33:51.089Z,18.30
2022-07-29T23:38:02.045Z,18.30
2022-07-29T23:42:11.576Z,18.20
2022-07-29T23:46:23.873Z,18.10
2022-07-29T23:50:34.144Z,18.00
2022-07-29T23:54:45.880Z,17.90
2022-07-29T23:58:56.656Z,17.80
